Terminal Aerodrome Forecast
Issued by NWS Shreveport, LA

Home | Current Version | Previous Version | Text Only | Print | Product List | Glossary On
Versions: 1 2 3 4 5 6 7 8 9 10 11 12 13 14 15 16 17 18 19 20 21 22 23
000
FTUS44 KSHV 301145
TAFMLU
TAF
KMLU 301145Z 3012/3112 17003KT 6SM BR OVC003
     FM301500 24010KT P6SM VCTS BKN025CB
     FM301800 27008KT P6SM TSRA BKN040CB
     FM310000 32006KT P6SM SCT050 BKN250=

USA.gov is the U.S. government's official web portal to all federal, state and local government web resources and services.